createdAt,value
2023-04-12T00:00:26.358Z,4.03
2023-04-12T00:02:55.085Z,4.20
2023-04-12T00:05:27.384Z,3.85
2023-04-12T00:07:55.892Z,3.13
2023-04-12T00:10:24.377Z,3.90
2023-04-12T00:12:52.828Z,3.58
2023-04-12T00:15:22.558Z,3.00
2023-04-12T00:17:50.934Z,2.67
2023-04-12T00:20:19.855Z,2.28
2023-04-12T00:22:50.452Z,2.40
2023-04-12T00:25:18.788Z,2.60
2023-04-12T00:27:47.074Z,2.80
2023-04-12T00:30:15.562Z,2.33
2023-04-12T00:32:45.404Z,2.13
2023-04-12T00:35:14.369Z,2.63
2023-04-12T00:37:42.906Z,2.40
2023-04-12T00:40:13.226Z,2.78
2023-04-12T00:42:41.965Z,2.63
2023-04-12T00:45:11.625Z,2.95
2023-04-12T00:47:42.938Z,2.70
2023-04-12T00:50:13.578Z,2.78
2023-04-12T00:52:42.008Z,2.63
2023-04-12T00:55:11.943Z,2.60
2023-04-12T00:57:41.711Z,2.40
2023-04-12T01:00:13.527Z,2.30
2023-04-12T01:02:50.224Z,2.20
2023-04-12T01:05:23.904Z,2.17
2023-04-12T01:08:06.229Z,1.95
2023-04-12T01:10:46.721Z,1.75
2023-04-12T01:13:30.152Z,2.03
2023-04-12T01:16:06.860Z,2.13
2023-04-12T01:18:40.887Z,1.83
2023-04-12T01:21:17.609Z,1.73
2023-04-12T01:24:16.180Z,1.50
2023-04-12T01:26:47.924Z,1.77
2023-04-12T01:29:20.815Z,1.60
2023-04-12T01:31:56.014Z,1.73
2023-04-12T01:34:26.530Z,2.42
2023-04-12T01:36:56.822Z,1.75
2023-04-12T01:39:25.217Z,1.90
2023-04-12T01:41:53.630Z,1.65
2023-04-12T01:44:23.340Z,1.80
2023-04-12T01:46:53.015Z,2.13
2023-04-12T01:49:22.923Z,1.80
2023-04-12T01:51:58.690Z,1.70
2023-04-12T01:54:31.244Z,1.80
2023-04-12T01:57:03.832Z,2.00
2023-04-12T01:59:39.169Z,1.98
2023-04-12T02:02:08.690Z,1.50
2023-04-12T02:04:37.899Z,1.90
2023-04-12T02:07:06.250Z,2.00
2023-04-12T02:09:39.200Z,2.10
2023-04-12T02:12:08.630Z,2.08
2023-04-12T02:14:38.339Z,2.28
2023-04-12T02:17:08.679Z,2.15
2023-04-12T02:19:37.027Z,2.25
2023-04-12T02:22:05.816Z,2.05
2023-04-12T02:24:34.135Z,2.20
2023-04-12T02:27:02.641Z,2.17
2023-04-12T02:29:31.401Z,2.35
2023-04-12T02:32:01.110Z,2.15
2023-04-12T02:34:34.301Z,2.22
2023-04-12T02:37:03.810Z,2.00
2023-04-12T02:39:34.447Z,2.20
2023-04-12T02:42:02.792Z,2.28
2023-04-12T02:44:31.187Z,2.10
2023-04-12T02:47:00.950Z,2.08
2023-04-12T02:49:29.220Z,2.10
2023-04-12T02:51:57.953Z,2.30
2023-04-12T02:54:26.232Z,2.20
2023-04-12T02:56:54.480Z,1.70
2023-04-12T02:59:22.838Z,2.25
2023-04-12T03:01:51.279Z,2.20
2023-04-12T03:04:22.787Z,2.20
2023-04-12T03:06:53.940Z,2.22
2023-04-12T03:09:22.368Z,2.25
2023-04-12T03:11:50.916Z,2.03
2023-04-12T03:14:19.340Z,2.05
2023-04-12T03:16:49.205Z,1.90
2023-04-12T03:19:17.719Z,2.40
2023-04-12T03:21:47.561Z,2.08
2023-04-12T03:24:15.902Z,2.05
2023-04-12T03:26:44.756Z,2.38
2023-04-12T03:29:13.845Z,2.17
2023-04-12T03:31:42.271Z,2.20
2023-04-12T03:34:11.115Z,2.20
2023-04-12T03:36:39.506Z,2.10
2023-04-12T03:39:09.379Z,2.17
2023-04-12T03:41:37.647Z,2.20
2023-04-12T03:44:06.591Z,2.15
2023-04-12T03:46:35.151Z,2.40
2023-04-12T03:49:03.797Z,2.30
2023-04-12T03:51:32.098Z,1.90
2023-04-12T03:54:02.825Z,2.05
2023-04-12T03:56:32.478Z,1.92
2023-04-12T03:59:01.178Z,2.10
2023-04-12T04:01:29.600Z,2.42
2023-04-12T04:03:58.321Z,1.95
2023-04-12T04:06:27.122Z,2.42
2023-04-12T04:08:55.683Z,2.08
2023-04-12T04:11:23.961Z,2.30
2023-04-12T04:13:53.621Z,2.05
2023-04-12T04:16:22.084Z,2.00
2023-04-12T04:18:50.605Z,2.15
2023-04-12T04:21:19.604Z,2.00
2023-04-12T04:23:48.512Z,2.08
2023-04-12T04:26:17.165Z,2.30
2023-04-12T04:28:46.546Z,2.15
2023-04-12T04:31:17.752Z,2.25
2023-04-12T04:33:46.357Z,2.10
2023-04-12T04:36:16.503Z,2.17
2023-04-12T04:38:44.835Z,2.10
2023-04-12T04:41:13.084Z,2.15
2023-04-12T04:43:42.702Z,2.13
2023-04-12T04:46:11.152Z,2.22
2023-04-12T04:48:41.454Z,2.72
2023-04-12T04:51:09.848Z,2.55
2023-04-12T04:53:38.489Z,2.20
2023-04-12T04:56:08.120Z,2.70
2023-04-12T04:58:36.755Z,2.70
2023-04-12T05:01:05.841Z,2.90
2023-04-12T05:03:34.464Z,3.67
2023-04-12T05:06:04.269Z,3.25
2023-04-12T05:08:32.551Z,3.80
2023-04-12T05:11:00.837Z,4.03
2023-04-12T05:13:29.180Z,4.10
2023-04-12T05:15:57.458Z,4.30
2023-04-12T05:18:25.755Z,4.68
2023-04-12T05:20:56.888Z,5.18
2023-04-12T05:23:27.470Z,5.35
2023-04-12T05:25:55.809Z,6.22
2023-04-12T05:28:24.105Z,5.90
2023-04-12T05:30:52.557Z,5.72
2023-04-12T05:33:21.077Z,5.68
2023-04-12T05:35:49.535Z,7.18
2023-04-12T05:38:17.844Z,5.97
2023-04-12T05:40:51.089Z,7.50
2023-04-12T05:43:19.381Z,6.88
2023-04-12T05:45:51.807Z,6.10
2023-04-12T05:48:20.093Z,5.68
2023-04-12T05:50:52.868Z,6.82
2023-04-12T05:53:22.129Z,6.65
2023-04-12T05:55:52.092Z,5.90
2023-04-12T05:58:20.449Z,6.05
2023-04-12T06:00:49.794Z,6.50
2023-04-12T06:03:18.568Z,5.43
2023-04-12T06:05:47.808Z,5.57
2023-04-12T06:08:16.616Z,5.20
2023-04-12T06:10:44.902Z,5.20
2023-04-12T06:13:14.601Z,4.38
2023-04-12T06:15:43.505Z,4.72
2023-04-12T06:18:12.991Z,4.53
2023-04-12T06:20:41.734Z,4.65
2023-04-12T06:23:10.079Z,4.50
2023-04-12T06:25:39.107Z,3.40
2023-04-12T06:28:07.404Z,3.50
2023-04-12T06:30:37.960Z,2.95
2023-04-12T06:33:06.269Z,3.38
2023-04-12T06:35:34.639Z,3.67
2023-04-12T06:38:02.944Z,3.67
2023-04-12T06:40:31.627Z,4.05
2023-04-12T06:42:59.947Z,3.70
2023-04-12T06:45:28.230Z,3.10
2023-04-12T06:47:57.909Z,3.95
2023-04-12T06:50:27.446Z,3.47
2023-04-12T06:52:55.766Z,3.78
2023-04-12T06:55:24.099Z,3.83
2023-04-12T06:57:52.390Z,3.53
2023-04-12T07:00:21.282Z,3.13
2023-04-12T07:02:49.697Z,3.65
2023-04-12T07:05:19.688Z,3.33
2023-04-12T07:07:48.021Z,3.85
2023-04-12T07:10:16.622Z,4.20
2023-04-12T07:12:44.956Z,3.72
2023-04-12T07:15:15.212Z,4.15
2023-04-12T07:17:43.532Z,4.18
2023-04-12T07:20:13.296Z,5.32
2023-04-12T07:22:48.589Z,4.10
2023-04-12T07:25:17.238Z,3.90
2023-04-12T07:27:45.608Z,4.93
2023-04-12T07:30:14.824Z,4.50
2023-04-12T07:32:43.505Z,4.10
2023-04-12T07:35:12.242Z,4.47
2023-04-12T07:37:40.648Z,4.32
2023-04-12T07:40:11.066Z,5.15
2023-04-12T07:42:39.469Z,5.03
2023-04-12T07:45:09.225Z,4.72
2023-04-12T07:47:37.582Z,5.80
2023-04-12T07:50:07.516Z,6.13
2023-04-12T07:52:35.964Z,5.75
2023-04-12T07:55:04.462Z,6.38
2023-04-12T07:57:34.341Z,6.05
2023-04-12T08:00:02.829Z,6.43
2023-04-12T08:02:31.322Z,7.28
2023-04-12T08:04:59.805Z,7.43
2023-04-12T08:07:28.492Z,6.97
2023-04-12T08:09:56.803Z,7.78
2023-04-12T08:12:25.130Z,6.70
2023-04-12T08:14:54.883Z,6.00
2023-04-12T08:17:23.165Z,4.72
2023-04-12T08:19:51.539Z,5.15
2023-04-12T08:22:19.811Z,5.00
2023-04-12T08:24:49.983Z,4.65
2023-04-12T08:27:18.359Z,4.90
2023-04-12T08:29:46.770Z,5.10
2023-04-12T08:32:16.637Z,4.68
2023-04-12T08:34:49.270Z,5.10
2023-04-12T08:37:18.074Z,5.15
2023-04-12T08:39:46.594Z,5.65
2023-04-12T08:42:16.825Z,5.10
2023-04-12T08:44:45.880Z,5.20
2023-04-12T08:47:15.676Z,5.07
2023-04-12T08:49:44.638Z,5.50
2023-04-12T08:52:12.919Z,6.30
2023-04-12T08:54:41.802Z,5.90
2023-04-12T08:57:11.056Z,5.80
2023-04-12T08:59:40.907Z,7.50
2023-04-12T09:02:09.477Z,6.25
2023-04-12T09:04:50.452Z,5.47
2023-04-12T09:07:19.782Z,5.45
2023-04-12T09:09:51.766Z,4.82
2023-04-12T09:12:23.879Z,4.97
2023-04-12T09:15:09.606Z,5.03
2023-04-12T09:17:39.081Z,5.20
2023-04-12T09:20:25.902Z,6.45
2023-04-12T09:22:55.771Z,5.72
2023-04-12T09:25:44.744Z,5.72
2023-04-12T09:28:26.046Z,5.57
2023-04-12T09:30:55.467Z,4.60
2023-04-12T09:33:34.405Z,4.75
2023-04-12T09:36:05.804Z,5.25
2023-04-12T09:38:36.915Z,4.88
2023-04-12T09:41:21.332Z,5.03
2023-04-12T09:43:51.943Z,5.13
2023-04-12T09:46:20.488Z,4.68
2023-04-12T09:48:52.702Z,5.50
2023-04-12T09:51:31.241Z,5.10
2023-04-12T09:54:02.688Z,4.18
2023-04-12T09:56:32.754Z,4.25
2023-04-12T09:59:06.814Z,3.92
2023-04-12T10:01:38.010Z,3.88
2023-04-12T10:04:08.829Z,3.75
2023-04-12T10:06:39.002Z,4.82
2023-04-12T10:09:08.792Z,3.40
2023-04-12T10:11:42.125Z,3.97
2023-04-12T10:14:12.144Z,4.07
2023-04-12T10:16:42.251Z,3.60
2023-04-12T10:19:11.621Z,4.45
2023-04-12T10:21:42.578Z,3.17
2023-04-12T10:24:12.257Z,3.40
2023-04-12T10:26:44.220Z,3.40
2023-04-12T10:29:26.963Z,3.50
2023-04-12T10:31:56.614Z,3.65
2023-04-12T10:34:32.364Z,2.97
2023-04-12T10:37:02.991Z,3.75
2023-04-12T10:39:43.578Z,2.83
2023-04-12T10:42:24.226Z,3.20
2023-04-12T10:44:54.864Z,3.33
2023-04-12T10:47:59.046Z,2.30
2023-04-12T10:50:30.193Z,2.55
2023-04-12T10:53:27.164Z,2.60
2023-04-12T10:55:55.601Z,3.22
2023-04-12T10:59:01.197Z,2.65
2023-04-12T11:01:31.563Z,3.08
2023-04-12T11:04:18.830Z,2.83
2023-04-12T11:07:10.143Z,2.85
2023-04-12T11:09:44.623Z,2.95
2023-04-12T11:12:14.437Z,2.60
2023-04-12T11:14:50.094Z,2.92
2023-04-12T11:17:27.969Z,2.25
2023-04-12T11:20:04.985Z,2.17
2023-04-12T11:22:34.403Z,1.92
2023-04-12T11:25:05.058Z,1.92
2023-04-12T11:27:34.460Z,2.00
2023-04-12T11:30:03.710Z,2.55
2023-04-12T11:32:34.152Z,2.78
2023-04-12T11:35:03.368Z,2.15
2023-04-12T11:37:35.790Z,2.00
2023-04-12T11:40:06.979Z,2.17
2023-04-12T11:42:35.449Z,2.03
2023-04-12T11:45:10.227Z,1.98
2023-04-12T11:47:44.806Z,2.10
2023-04-12T11:50:13.482Z,2.55
2023-04-12T11:52:42.106Z,2.60
2023-04-12T11:55:14.161Z,2.30
2023-04-12T11:57:42.485Z,2.20
2023-04-12T12:00:12.106Z,2.20
2023-04-12T12:02:46.496Z,1.88
2023-04-12T12:05:18.501Z,2.13
2023-04-12T12:07:47.110Z,2.63
2023-04-12T12:10:31.623Z,2.53
2023-04-12T12:13:12.449Z,3.10
2023-04-12T12:15:41.144Z,1.77
2023-04-12T12:18:10.825Z,2.25
2023-04-12T12:20:43.837Z,2.30
2023-04-12T12:23:12.254Z,2.13
2023-04-12T12:25:48.146Z,1.80
2023-04-12T12:28:18.201Z,2.53
2023-04-12T12:30:48.788Z,2.40
2023-04-12T12:33:29.010Z,1.83
2023-04-12T12:36:03.874Z,1.60
2023-04-12T12:38:37.792Z,2.40
2023-04-12T12:41:22.263Z,2.15
2023-04-12T12:43:52.560Z,1.95
2023-04-12T12:46:22.045Z,2.50
2023-04-12T12:48:50.385Z,2.28
2023-04-12T12:51:19.841Z,2.45
2023-04-12T12:53:51.259Z,2.28
2023-04-12T12:56:21.454Z,2.00
2023-04-12T12:58:50.227Z,2.28
2023-04-12T13:01:18.636Z,2.63
2023-04-12T13:03:47.097Z,2.03
2023-04-12T13:06:15.567Z,2.20
2023-04-12T13:08:43.959Z,1.98
2023-04-12T13:11:12.462Z,1.70
2023-04-12T13:13:42.124Z,1.55
2023-04-12T13:16:11.082Z,1.30
2023-04-12T13:18:41.681Z,1.42
2023-04-12T13:21:10.040Z,1.17
2023-04-12T13:23:38.476Z,1.77
2023-04-12T13:26:16.459Z,0.95
2023-04-12T13:28:51.929Z,1.40
2023-04-12T13:31:20.482Z,1.45
2023-04-12T13:33:51.999Z,1.50
2023-04-12T13:36:24.921Z,1.52
2023-04-12T13:38:53.233Z,1.52
2023-04-12T13:41:21.502Z,1.35
2023-04-12T13:43:51.183Z,1.23
2023-04-12T13:46:19.561Z,1.70
2023-04-12T13:48:51.112Z,1.45
2023-04-12T13:51:19.518Z,1.70
2023-04-12T13:53:50.828Z,1.73
2023-04-12T13:56:19.431Z,2.03
2023-04-12T13:58:52.197Z,1.98
2023-04-12T14:01:23.523Z,1.85
2023-04-12T14:03:53.497Z,1.45
2023-04-12T14:06:21.983Z,1.50
2023-04-12T14:08:51.108Z,1.50
2023-04-12T14:11:19.591Z,2.40
2023-04-12T14:13:47.965Z,1.83
2023-04-12T14:16:17.673Z,1.02
2023-04-12T14:18:45.919Z,0.93
2023-04-12T14:21:14.272Z,0.70
2023-04-12T14:23:42.550Z,0.90
2023-04-12T14:26:23.556Z,0.70
2023-04-12T14:28:52.000Z,0.85
2023-04-12T14:31:22.028Z,0.80
2023-04-12T14:33:50.330Z,1.20
2023-04-12T14:36:18.892Z,0.80
2023-04-12T14:38:48.445Z,0.82
2023-04-12T14:41:17.081Z,0.80
2023-04-12T14:43:45.964Z,0.90
2023-04-12T14:46:14.426Z,0.65
2023-04-12T14:48:44.561Z,0.98
2023-04-12T14:51:12.869Z,1.13
2023-04-12T14:53:42.682Z,1.20
2023-04-12T14:56:23.823Z,0.90
2023-04-12T14:58:54.353Z,1.13
2023-04-12T15:01:23.693Z,1.00
2023-04-12T15:03:54.330Z,1.15
2023-04-12T15:06:45.858Z,1.25
2023-04-12T15:09:17.909Z,1.00
2023-04-12T15:11:47.366Z,1.00
2023-04-12T15:14:19.995Z,1.58
2023-04-12T15:16:50.825Z,1.10
2023-04-12T15:19:23.419Z,1.08
2023-04-12T15:21:52.550Z,1.33
2023-04-12T15:24:22.395Z,1.40
2023-04-12T15:26:52.561Z,1.02
2023-04-12T15:29:22.374Z,1.10
2023-04-12T15:31:56.084Z,1.35
2023-04-12T15:34:26.071Z,1.08
2023-04-12T15:36:54.541Z,1.42
2023-04-12T15:39:22.910Z,1.23
2023-04-12T15:41:51.326Z,1.67
2023-04-12T15:44:19.658Z,1.55
2023-04-12T15:46:59.516Z,1.70
2023-04-12T15:49:40.095Z,1.27
2023-04-12T15:52:09.080Z,1.80
2023-04-12T15:54:43.579Z,1.92
2023-04-12T15:57:12.353Z,1.50
2023-04-12T15:59:42.113Z,1.23
2023-04-12T16:02:12.784Z,1.80
2023-04-12T16:04:47.020Z,2.08
2023-04-12T16:07:15.579Z,2.03
2023-04-12T16:09:44.125Z,1.67
2023-04-12T16:12:12.417Z,1.58
2023-04-12T16:14:40.913Z,1.67
2023-04-12T16:17:09.220Z,1.30
2023-04-12T16:19:37.657Z,1.42
2023-04-12T16:22:07.872Z,1.30
2023-04-12T16:24:36.351Z,1.50
2023-04-12T16:27:05.117Z,1.77
2023-04-12T16:29:33.618Z,1.75
2023-04-12T16:32:03.863Z,1.73
2023-04-12T16:34:32.213Z,1.50
2023-04-12T16:37:00.510Z,1.58
2023-04-12T16:39:30.150Z,1.10
2023-04-12T16:41:58.431Z,1.67
2023-04-12T16:44:27.164Z,1.80
2023-04-12T16:46:56.182Z,1.85
2023-04-12T16:49:24.597Z,1.80
2023-04-12T16:51:53.244Z,2.60
2023-04-12T16:54:21.807Z,1.92
2023-04-12T16:56:51.714Z,1.42
2023-04-12T16:59:20.053Z,1.45
2023-04-12T17:01:51.204Z,1.75
2023-04-12T17:04:19.564Z,1.50
2023-04-12T17:06:50.721Z,1.75
2023-04-12T17:09:19.055Z,1.38
2023-04-12T17:11:47.555Z,1.55
2023-04-12T17:14:17.377Z,1.40
2023-04-12T17:16:45.731Z,1.65
2023-04-12T17:19:14.069Z,1.73
2023-04-12T17:21:43.220Z,1.63
2023-04-12T17:24:17.613Z,1.42
2023-04-12T17:26:46.594Z,1.73
2023-04-12T17:29:16.497Z,1.80
2023-04-12T17:31:45.709Z,1.42
2023-04-12T17:34:14.047Z,1.75
2023-04-12T17:36:42.811Z,1.33
2023-04-12T17:39:11.470Z,2.15
2023-04-12T17:41:40.458Z,1.70
2023-04-12T17:44:08.924Z,1.67
2023-04-12T17:46:38.773Z,1.70
2023-04-12T17:49:08.986Z,1.27
2023-04-12T17:51:37.320Z,1.48
2023-04-12T17:54:05.800Z,1.15
2023-04-12T17:56:34.263Z,1.83
2023-04-12T17:59:05.522Z,2.17
2023-04-12T18:01:36.686Z,1.40
2023-04-12T18:04:07.445Z,1.40
2023-04-12T18:06:35.892Z,1.40
2023-04-12T18:09:06.250Z,1.33
2023-04-12T18:11:38.702Z,1.30
2023-04-12T18:14:07.252Z,1.55
2023-04-12T18:16:35.774Z,1.73
2023-04-12T18:19:07.268Z,1.65
2023-04-12T18:21:36.131Z,2.13
2023-04-12T18:24:06.055Z,1.83
2023-04-12T18:26:34.484Z,1.65
2023-04-12T18:29:05.924Z,1.60
2023-04-12T18:31:34.356Z,2.00
2023-04-12T18:34:02.903Z,2.35
2023-04-12T18:36:32.735Z,1.88
2023-04-12T18:39:01.200Z,1.92
2023-04-12T18:41:29.533Z,2.10
2023-04-12T18:43:58.141Z,1.38
2023-04-12T18:46:27.292Z,1.90
2023-04-12T18:48:55.757Z,1.83
2023-04-12T18:51:24.701Z,1.55
2023-04-12T18:53:54.532Z,1.92
2023-04-12T18:56:24.519Z,1.88
2023-04-12T18:58:56.005Z,1.55
2023-04-12T19:01:25.539Z,1.60
2023-04-12T19:03:54.509Z,1.40
2023-04-12T19:06:22.957Z,1.25
2023-04-12T19:08:51.300Z,1.42
2023-04-12T19:11:21.296Z,1.52
2023-04-12T19:13:49.929Z,2.15
2023-04-12T19:16:18.400Z,1.58
2023-04-12T19:18:47.012Z,1.70
2023-04-12T19:21:18.525Z,1.48
2023-04-12T19:23:46.800Z,0.93
2023-04-12T19:26:17.073Z,1.02
2023-04-12T19:28:46.927Z,1.83
2023-04-12T19:31:15.229Z,1.05
2023-04-12T19:33:43.921Z,1.30
2023-04-12T19:36:12.345Z,1.40
2023-04-12T19:38:41.698Z,1.27
2023-04-12T19:41:10.143Z,1.10
2023-04-12T19:43:38.688Z,1.70
2023-04-12T19:46:11.015Z,1.55
2023-04-12T19:48:39.754Z,1.75
2023-04-12T19:51:08.422Z,1.10
2023-04-12T19:53:40.474Z,1.40
2023-04-12T19:56:09.798Z,1.25
2023-04-12T19:58:38.399Z,1.30
2023-04-12T20:01:09.893Z,1.50
2023-04-12T20:03:40.630Z,1.10
2023-04-12T20:06:09.000Z,0.77
2023-04-12T20:08:40.686Z,1.08
2023-04-12T20:11:08.993Z,1.25
2023-04-12T20:13:37.298Z,1.40
2023-04-12T20:16:10.019Z,1.40
2023-04-12T20:18:38.303Z,1.50
2023-04-12T20:21:09.889Z,1.00
2023-04-12T20:23:38.275Z,0.88
2023-04-12T20:26:07.397Z,1.30
2023-04-12T20:28:35.960Z,1.45
2023-04-12T20:31:04.640Z,1.13
2023-04-12T20:33:34.846Z,1.10
2023-04-12T20:36:03.471Z,1.15
2023-04-12T20:38:31.775Z,1.10
2023-04-12T20:41:00.243Z,0.90
2023-04-12T20:43:28.553Z,1.45
2023-04-12T20:45:56.953Z,1.08
2023-04-12T20:48:26.087Z,0.88
2023-04-12T20:50:56.289Z,1.25
2023-04-12T20:53:24.624Z,1.00
2023-04-12T20:55:53.250Z,1.08
2023-04-12T20:58:21.872Z,1.00
2023-04-12T21:00:50.359Z,1.17
2023-04-12T21:03:19.044Z,1.05
2023-04-12T21:06:00.892Z,0.82
2023-04-12T21:08:33.592Z,0.90
2023-04-12T21:11:02.777Z,1.10
2023-04-12T21:13:31.883Z,0.80
2023-04-12T21:16:00.819Z,0.85
2023-04-12T21:18:32.164Z,1.10
2023-04-12T21:21:01.294Z,1.00
2023-04-12T21:23:31.040Z,1.38
2023-04-12T21:25:59.708Z,1.08
2023-04-12T21:28:31.043Z,0.90
2023-04-12T21:30:59.694Z,0.93
2023-04-12T21:33:28.087Z,1.00
2023-04-12T21:35:57.004Z,0.90
2023-04-12T21:38:25.634Z,0.85
2023-04-12T21:40:58.748Z,0.95
2023-04-12T21:43:27.178Z,0.93
2023-04-12T21:45:55.616Z,1.27
2023-04-12T21:48:23.979Z,1.08
2023-04-12T21:50:52.523Z,1.45
2023-04-12T21:53:20.786Z,1.40
2023-04-12T21:55:50.834Z,1.45
2023-04-12T21:58:20.604Z,1.42
2023-04-12T22:00:52.520Z,1.10
2023-04-12T22:03:21.507Z,1.17
2023-04-12T22:06:02.895Z,0.95
2023-04-12T22:08:33.016Z,1.70
2023-04-12T22:11:02.084Z,0.80
2023-04-12T22:13:32.111Z,0.75
2023-04-12T22:16:02.733Z,0.90
2023-04-12T22:18:31.772Z,0.80
2023-04-12T22:21:04.074Z,0.75
2023-04-12T22:23:32.394Z,0.70
2023-04-12T22:26:00.839Z,0.60
2023-04-12T22:28:29.162Z,0.80
2023-04-12T22:31:00.703Z,0.73
2023-04-12T22:33:30.000Z,0.70
2023-04-12T22:35:58.693Z,1.00
2023-04-12T22:38:27.149Z,0.98
2023-04-12T22:41:02.410Z,0.75
2023-04-12T22:43:34.110Z,0.80
2023-04-12T22:46:06.053Z,0.90
2023-04-12T22:48:34.441Z,0.98
2023-04-12T22:51:03.778Z,0.70
2023-04-12T22:53:34.362Z,0.75
2023-04-12T22:56:02.932Z,0.90
2023-04-12T22:58:31.460Z,0.55
2023-04-12T23:00:59.985Z,1.05
2023-04-12T23:03:30.402Z,0.93
2023-04-12T23:05:59.734Z,0.90
2023-04-12T23:08:29.206Z,0.85
2023-04-12T23:11:02.406Z,1.30
2023-04-12T23:13:33.866Z,1.67
2023-04-12T23:16:03.410Z,1.05
2023-04-12T23:18:33.321Z,1.10
2023-04-12T23:21:02.818Z,1.35
2023-04-12T23:23:31.058Z,0.80
2023-04-12T23:25:59.552Z,1.00
2023-04-12T23:28:28.550Z,1.10
2023-04-12T23:30:59.083Z,1.30
2023-04-12T23:33:27.333Z,1.10
2023-04-12T23:35:57.109Z,1.00
2023-04-12T23:38:27.093Z,1.30
2023-04-12T23:40:55.450Z,1.58
2023-04-12T23:43:25.318Z,1.42
2023-04-12T23:45:54.406Z,1.27
2023-04-12T23:48:23.368Z,1.38
2023-04-12T23:50:52.514Z,1.30
2023-04-12T23:53:22.976Z,1.38
2023-04-12T23:55:53.808Z,1.20
2023-04-12T23:58:22.636Z,1.23
